Time;durP1;ratioP1;P1;durP2;ratioP2;P2;SDS_P1;SDS_P2;PMS_P1;PMS_P2;Temp;Humidity;BMP_temperature;BMP_pressure;BME280_temperature;BME280_humidity;BME280_pressure;Samples;Min_cycle;Max_cycle;Signal;HPM_P1;HPM_P2
2023/11/06 00:01:09;;;;;;;2.00;0.60;;;;;;;10.92;100.00;98473.06;5034040;28;20534;-70
2023/11/06 00:03:36;;;;;;;2.20;0.70;;;;;;;10.91;100.00;98482.34;5034032;28;20523;-70
2023/11/06 00:06:04;;;;;;;2.77;0.73;;;;;;;10.93;100.00;98497.06;5034016;28;20530;-70
2023/11/06 00:08:31;;;;;;;2.30;0.73;;;;;;;10.95;100.00;98480.50;5034129;28;20443;-70
2023/11/06 00:10:58;;;;;;;3.00;1.30;;;;;;;10.93;100.00;98499.78;5033014;28;20443;-70
2023/11/06 00:13:24;;;;;;;2.60;1.00;;;;;;;10.92;100.00;98508.28;5034121;28;20491;-70
2023/11/06 00:15:51;;;;;;;1.93;0.53;;;;;;;11.03;100.00;98517.44;5033503;28;20501;-70
2023/11/06 00:18:17;;;;;;;2.13;0.70;;;;;;;11.06;98.82;98522.13;5033804;28;20461;-70
2023/11/06 00:20:45;;;;;;;5.10;0.83;;;;;;;11.14;98.08;98526.56;5033747;28;20494;-70
2023/11/06 00:23:13;;;;;;;1.90;0.50;;;;;;;11.09;98.71;98535.75;5033614;28;20459;-70
2023/11/06 00:25:39;;;;;;;3.30;0.80;;;;;;;11.15;97.20;98562.56;5033649;28;21005;-71
2023/11/06 00:28:06;;;;;;;2.50;0.70;;;;;;;11.17;98.00;98531.28;5033541;28;20482;-70
2023/11/06 00:30:33;;;;;;;2.10;0.70;;;;;;;11.25;95.89;98540.34;5033932;28;20445;-70
2023/11/06 00:33:00;;;;;;;2.20;0.60;;;;;;;11.23;96.87;98542.59;5033237;28;20887;-70
2023/11/06 00:35:26;;;;;;;2.17;0.70;;;;;;;11.17;97.03;98544.81;5034073;28;20431;-72
2023/11/06 00:37:53;;;;;;;2.00;0.60;;;;;;;11.18;97.40;98548.31;5033481;28;20538;-70
2023/11/06 00:40:21;;;;;;;2.30;0.70;;;;;;;11.19;96.87;98558.00;5033181;28;20435;-70
2023/11/06 00:42:48;;;;;;;2.30;0.77;;;;;;;11.22;96.40;98573.56;5033178;28;20522;-72
2023/11/06 00:45:14;;;;;;;2.10;0.70;;;;;;;11.21;96.72;98569.28;5046529;23;20877;-67
2023/11/06 00:47:41;;;;;;;2.30;0.70;;;;;;;11.22;96.86;98578.97;5033743;28;20467;-67
2023/11/06 00:50:10;;;;;;;2.37;0.80;;;;;;;11.19;97.49;98577.75;5033373;28;20447;-67
2023/11/06 00:52:37;;;;;;;2.90;0.83;;;;;;;11.24;96.82;98596.44;5033040;28;20450;-65
2023/11/06 00:55:04;;;;;;;2.10;0.60;;;;;;;11.32;95.83;98589.25;5033699;28;20477;-65
2023/11/06 00:57:32;;;;;;;2.20;0.70;;;;;;;11.24;96.87;98596.44;5033511;28;20435;-65
2023/11/06 00:59:59;;;;;;;2.57;0.73;;;;;;;11.18;97.54;98614.13;5033414;28;21018;-65
2023/11/06 01:02:25;;;;;;;2.30;0.70;;;;;;;11.20;97.99;98633.53;5033619;28;20447;-65
2023/11/06 01:04:52;;;;;;;1.90;0.50;;;;;;;11.19;97.61;98612.97;5033058;28;20487;-66
2023/11/06 01:07:19;;;;;;;2.17;0.60;;;;;;;11.11;98.88;98617.47;5033208;28;20790;-65
2023/11/06 01:09:46;;;;;;;1.90;0.50;;;;;;;11.06;99.44;98628.56;5033164;28;20442;-65
2023/11/06 01:12:12;;;;;;;3.10;0.87;;;;;;;11.12;99.24;98629.09;5033155;28;20935;-65
2023/11/06 01:14:40;;;;;;;2.10;0.80;;;;;;;11.14;98.69;98632.22;5033169;28;20546;-65
2023/11/06 01:17:08;;;;;;;3.13;0.87;;;;;;;11.12;99.13;98639.94;5032898;28;20439;-65
2023/11/06 01:19:35;;;;;;;2.20;0.60;;;;;;;11.13;98.68;98638.78;5033271;28;20443;-66
2023/11/06 01:22:01;;;;;;;1.90;0.50;;;;;;;11.14;97.63;98658.53;5034036;28;20868;-65
2023/11/06 01:24:28;;;;;;;2.93;0.67;;;;;;;11.16;97.91;98653.56;5036944;28;20537;-65
2023/11/06 01:26:54;;;;;;;2.10;0.60;;;;;;;11.13;98.20;98660.47;5036358;28;20798;-66
2023/11/06 01:29:21;;;;;;;3.63;0.70;;;;;;;11.22;96.65;98668.41;5036528;28;21005;-65
2023/11/06 01:31:49;;;;;;;2.33;0.83;;;;;;;11.20;96.85;98667.97;5037050;28;20439;-66
2023/11/06 01:34:16;;;;;;;2.77;0.63;;;;;;;11.19;97.31;98669.88;5036774;28;20506;-65
2023/11/06 01:36:43;;;;;;;1.90;0.50;;;;;;;11.21;97.15;98672.25;5036620;28;21016;-65
2023/11/06 01:39:11;;;;;;;2.00;0.50;;;;;;;11.25;95.53;98679.34;5036788;28;20442;-65
2023/11/06 01:41:38;;;;;;;1.93;0.50;;;;;;;11.27;95.14;98698.72;5036142;28;20919;-65
2023/11/06 01:44:06;;;;;;;3.63;0.90;;;;;;;11.21;96.60;98692.00;5036071;28;20992;-65
2023/11/06 01:46:33;;;;;;;2.20;0.70;;;;;;;11.36;94.20;98698.53;5036686;28;20512;-65
2023/11/06 01:49:01;;;;;;;2.67;1.10;;;;;;;11.30;94.60;98689.91;5036408;28;20881;-65
2023/11/06 01:51:29;;;;;;;2.30;0.60;;;;;;;11.28;95.63;98700.28;5036518;28;20470;-65
2023/11/06 01:53:57;;;;;;;2.50;0.90;;;;;;;11.29;95.54;98703.81;5036148;28;20463;-66
2023/11/06 01:56:24;;;;;;;2.47;0.67;;;;;;;11.34;94.23;98709.75;5036053;28;20474;-65
2023/11/06 01:58:51;;;;;;;2.00;0.70;;;;;;;11.30;94.74;98708.09;5036372;28;20450;-65
2023/11/06 02:01:19;;;;;;;4.00;0.83;;;;;;;11.32;93.49;98706.59;5036100;28;20473;-65
2023/11/06 02:03:47;;;;;;;1.87;0.60;;;;;;;11.34;93.51;98701.63;5036402;28;20805;-65
2023/11/06 02:06:15;;;;;;;4.43;0.70;;;;;;;11.29;94.39;98717.38;5035951;28;20529;-65
2023/11/06 02:08:42;;;;;;;2.43;0.60;;;;;;;11.37;92.37;98714.44;5035685;28;20927;-65
2023/11/06 02:11:09;;;;;;;2.10;0.60;;;;;;;11.30;93.48;98717.00;5035993;28;20994;-65
2023/11/06 02:13:35;;;;;;;1.90;0.60;;;;;;;11.34;92.92;98736.84;5035915;28;20459;-65
2023/11/06 02:16:02;;;;;;;2.83;0.90;;;;;;;11.33;93.09;98734.47;5035882;28;20471;-65
2023/11/06 02:18:28;;;;;;;2.70;0.87;;;;;;;11.33;92.31;98738.00;5036013;28;20439;-65
2023/11/06 02:20:57;;;;;;;2.30;0.63;;;;;;;11.34;92.56;98747.69;5035723;28;20526;-65
2023/11/06 02:23:26;;;;;;;2.73;0.93;;;;;;;11.26;93.16;98748.66;5036055;28;20459;-65
2023/11/06 02:25:52;;;;;;;2.30;0.80;;;;;;;11.28;92.88;98759.13;5035502;28;20487;-65
2023/11/06 02:28:19;;;;;;;2.87;0.60;;;;;;;11.32;91.13;98763.50;5035325;28;20471;-65
2023/11/06 02:30:51;;;;;;;2.10;0.80;;;;;;;11.35;91.56;98773.66;5035949;28;20474;-65
2023/11/06 02:33:18;;;;;;;2.63;0.70;;;;;;;11.35;92.02;98773.66;5035463;28;20459;-66
2023/11/06 02:35:45;;;;;;;2.47;0.80;;;;;;;11.41;91.57;98784.22;5035150;28;20471;-66
2023/11/06 02:38:11;;;;;;;2.20;0.67;;;;;;;11.44;90.66;98778.13;5035383;28;20497;-66
2023/11/06 02:40:39;;;;;;;7.40;0.80;;;;;;;11.51;90.01;98786.41;5035151;28;20934;-67
2023/11/06 02:43:06;;;;;;;2.10;0.53;;;;;;;11.51;89.42;98783.69;5035178;28;20505;-67
2023/11/06 02:45:33;;;;;;;1.97;0.50;;;;;;;11.50;89.78;98798.41;5034837;28;20513;-67
2023/11/06 02:47:59;;;;;;;2.03;0.53;;;;;;;11.52;89.21;98812.41;5035321;28;20453;-67
2023/11/06 02:50:26;;;;;;;2.87;0.80;;;;;;;11.56;89.54;98810.56;5035051;28;20442;-67
2023/11/06 02:52:53;;;;;;;2.47;0.80;;;;;;;11.52;88.49;98821.31;5034735;28;20926;-67
2023/11/06 02:55:20;;;;;;;2.37;0.97;;;;;;;11.57;88.96;98828.41;5035477;28;20534;-67
2023/11/06 02:57:48;;;;;;;1.97;0.60;;;;;;;11.54;88.92;98823.66;5035020;28;20447;-67
2023/11/06 03:00:15;;;;;;;2.10;0.63;;;;;;;11.49;88.15;98829.34;5035288;28;20435;-67
2023/11/06 03:02:42;;;;;;;2.30;0.80;;;;;;;11.43;88.52;98828.84;5034912;28;20526;-67
2023/11/06 03:05:11;;;;;;;1.87;0.53;;;;;;;11.40;89.08;98836.88;5034413;28;20581;-67
2023/11/06 03:07:38;;;;;;;2.23;0.50;;;;;;;11.29;90.33;98845.53;5034811;28;20526;-67
2023/11/06 03:10:05;;;;;;;3.70;0.80;;;;;;;11.27;89.82;98847.00;5034827;28;20523;-67
2023/11/06 03:12:32;;;;;;;2.73;0.80;;;;;;;11.26;89.38;98848.94;5034767;28;20526;-67
2023/11/06 03:15:00;;;;;;;2.30;0.90;;;;;;;11.19;90.13;98850.66;5034637;28;20455;-67
2023/11/06 03:17:27;;;;;;;1.80;0.40;;;;;;;11.16;90.33;98851.38;5035004;28;20436;-67
2023/11/06 03:19:54;;;;;;;1.97;0.63;;;;;;;11.09;90.66;98863.59;5034663;28;20443;-67
2023/11/06 03:22:22;;;;;;;2.30;0.50;;;;;;;11.03;91.37;98859.56;5034543;28;20441;-67
2023/11/06 03:24:49;;;;;;;2.63;0.70;;;;;;;10.97;91.43;98881.81;5034364;28;20469;-67
2023/11/06 03:27:16;;;;;;;1.80;0.40;;;;;;;10.96;91.87;98878.34;5034237;28;20508;-67
2023/11/06 03:29:43;;;;;;;1.77;0.40;;;;;;;11.00;91.44;98886.56;5034165;28;21007;-67
2023/11/06 03:32:11;;;;;;;2.10;0.60;;;;;;;10.96;91.68;98891.88;5034399;28;20447;-67
2023/11/06 03:34:37;;;;;;;1.80;0.40;;;;;;;10.84;92.28;98891.91;5034051;28;20469;-67
2023/11/06 03:37:04;;;;;;;2.50;0.80;;;;;;;10.82;93.11;98897.69;5034357;28;20494;-67
2023/11/06 03:39:31;;;;;;;2.27;0.60;;;;;;;10.79;93.06;98892.94;5034419;28;20439;-67
2023/11/06 03:41:58;;;;;;;1.90;0.60;;;;;;;10.74;92.93;98892.41;5033784;28;20470;-67
2023/11/06 03:44:26;;;;;;;1.90;0.50;;;;;;;10.78;92.32;98906.84;5033771;28;21069;-67
2023/11/06 03:46:52;;;;;;;2.40;0.70;;;;;;;10.74;93.83;98901.31;5033240;28;20566;-67
2023/11/06 03:49:21;;;;;;;2.37;0.73;;;;;;;10.76;93.36;98917.25;5034447;28;20444;-67
2023/11/06 03:51:48;;;;;;;2.40;0.80;;;;;;;10.74;92.89;98917.56;5033791;28;20863;-67
2023/11/06 03:54:14;;;;;;;2.10;0.60;;;;;;;10.71;93.63;98923.66;5033934;28;21012;-65
2023/11/06 03:56:41;;;;;;;1.80;0.40;;;;;;;10.67;94.18;98927.41;5033992;28;20530;-66
2023/11/06 03:59:08;;;;;;;2.07;0.60;;;;;;;10.64;94.30;98934.31;5034046;28;20816;-66
2023/11/06 04:01:35;;;;;;;2.20;0.70;;;;;;;10.63;93.92;98937.38;5033926;28;20453;-66
2023/11/06 04:04:02;;;;;;;1.80;0.50;;;;;;;10.60;94.65;98936.13;5034069;28;20462;-66
2023/11/06 04:06:31;;;;;;;2.43;0.87;;;;;;;10.58;93.85;98944.59;5033770;28;20579;-65
2023/11/06 04:08:57;;;;;;;3.23;0.90;;;;;;;10.53;94.37;98944.00;5034175;28;20531;-65
2023/11/06 04:11:25;;;;;;;2.10;0.60;;;;;;;10.51;94.46;98935.47;5034111;28;20518;-65
2023/11/06 04:13:52;;;;;;;1.87;0.40;;;;;;;10.48;95.51;98947.75;5033613;28;20459;-65
2023/11/06 04:16:19;;;;;;;1.90;0.53;;;;;;;10.51;94.83;98954.41;5033690;28;20534;-65
2023/11/06 04:18:47;;;;;;;2.77;0.60;;;;;;;10.45;93.99;98953.06;5033783;28;20510;-65
2023/11/06 04:21:13;;;;;;;1.80;0.50;;;;;;;10.47;93.91;98958.91;5033312;28;20450;-65
2023/11/06 04:23:41;;;;;;;2.00;0.60;;;;;;;10.43;94.83;98966.13;5033412;28;20459;-65
2023/11/06 04:26:08;;;;;;;2.80;0.63;;;;;;;10.43;94.45;98960.72;5033243;28;20560;-66
2023/11/06 04:28:35;;;;;;;1.80;0.40;;;;;;;10.46;93.40;98962.75;5033212;28;20474;-66
2023/11/06 04:31:01;;;;;;;2.03;0.63;;;;;;;10.38;95.58;98969.06;5034199;28;20439;-65
2023/11/06 04:33:28;;;;;;;1.90;0.50;;;;;;;10.32;95.62;98969.31;5033484;28;20495;-65
2023/11/06 04:35:55;;;;;;;2.00;0.60;;;;;;;10.32;95.34;98968.53;5033517;28;20525;-65
2023/11/06 04:38:22;;;;;;;2.83;0.67;;;;;;;10.32;94.78;98982.84;5033597;28;20435;-65
2023/11/06 04:40:50;;;;;;;2.50;0.50;;;;;;;10.29;94.84;98983.50;5033855;28;20479;-66
2023/11/06 04:43:16;;;;;;;2.00;0.50;;;;;;;10.30;94.52;98993.19;5033406;28;20498;-65
2023/11/06 04:45:43;;;;;;;2.40;0.80;;;;;;;10.30;95.35;98995.91;5033054;28;20478;-65
2023/11/06 04:48:10;;;;;;;2.03;0.57;;;;;;;10.23;95.73;99006.50;5033377;28;20827;-65
2023/11/06 04:50:36;;;;;;;1.93;0.37;;;;;;;10.29;95.90;98994.34;5033440;28;20482;-65
2023/11/06 04:53:03;;;;;;;1.87;0.50;;;;;;;10.29;95.86;99012.50;5033283;28;20842;-65
2023/11/06 04:55:31;;;;;;;2.00;0.60;;;;;;;10.39;94.48;99003.91;5033609;28;20463;-66
2023/11/06 04:57:59;;;;;;;2.33;0.80;;;;;;;10.43;94.02;99010.22;5035266;28;20492;-65
2023/11/06 05:00:25;;;;;;;1.80;0.40;;;;;;;10.47;93.67;99004.94;5037228;28;20530;-65
2023/11/06 05:02:52;;;;;;;1.73;0.40;;;;;;;10.50;93.92;99010.47;5037114;28;20514;-65
2023/11/06 05:05:19;;;;;;;1.87;0.50;;;;;;;10.57;93.46;99007.19;5037386;28;20446;-65
2023/11/06 05:07:45;;;;;;;1.80;0.40;;;;;;;10.67;92.49;99008.63;5037366;28;20525;-66
2023/11/06 05:10:12;;;;;;;2.67;0.70;;;;;;;10.74;92.14;99017.78;5037063;28;20516;-65
2023/11/06 05:12:38;;;;;;;1.80;0.50;;;;;;;10.75;92.84;99011.22;5037007;28;20442;-65
2023/11/06 05:15:09;;;;;;;2.10;0.70;;;;;;;10.76;92.10;99018.22;5036848;28;20495;-66
2023/11/06 05:17:35;;;;;;;1.90;0.50;;;;;;;10.76;93.01;99020.16;5037012;28;20482;-66
2023/11/06 05:20:03;;;;;;;1.90;0.50;;;;;;;10.84;91.75;99028.13;5036827;28;20447;-65
2023/11/06 05:22:30;;;;;;;2.10;0.60;;;;;;;10.90;91.46;99034.13;5036830;28;20475;-67
2023/11/06 05:24:57;;;;;;;1.80;0.37;;;;;;;10.95;91.89;99046.66;5036729;28;20585;-65
2023/11/06 05:27:23;;;;;;;1.73;0.40;;;;;;;10.99;92.56;99039.41;5036635;28;20489;-65
2023/11/06 05:29:50;;;;;;;2.10;0.70;;;;;;;10.99;92.01;99045.63;5036777;28;20439;-65
2023/11/06 05:32:18;;;;;;;1.87;0.47;;;;;;;11.01;92.12;99051.47;5036412;28;20882;-65
2023/11/06 05:34:45;;;;;;;2.10;0.60;;;;;;;11.05;91.09;99051.59;5036569;28;20973;-65
2023/11/06 05:37:11;;;;;;;8.13;0.70;;;;;;;11.08;91.26;99064.47;5036278;28;20470;-65
2023/11/06 05:39:39;;;;;;;1.80;0.40;;;;;;;11.07;91.43;99068.31;5036484;28;20505;-65
2023/11/06 05:42:06;;;;;;;1.90;0.50;;;;;;;11.10;90.88;99071.09;5036080;28;20821;-66
2023/11/06 05:44:33;;;;;;;3.10;0.83;;;;;;;11.13;89.90;99074.28;5035966;28;21005;-67
2023/11/06 05:46:59;;;;;;;2.50;0.70;;;;;;;11.10;90.64;99076.50;5036580;28;20536;-65
2023/11/06 05:49:27;;;;;;;2.00;0.60;;;;;;;11.10;91.64;99083.88;5036303;28;20873;-65
2023/11/06 05:51:54;;;;;;;1.80;0.40;;;;;;;11.15;90.42;99082.84;5036050;28;20926;-65
2023/11/06 05:54:20;;;;;;;2.00;0.70;;;;;;;11.18;90.73;99082.16;5036176;28;20512;-65
2023/11/06 05:56:49;;;;;;;2.00;0.53;;;;;;;11.19;89.75;99078.31;5036509;28;20509;-65
2023/11/06 05:59:15;;;;;;;1.87;0.43;;;;;;;11.21;90.00;99095.03;5035908;28;20451;-66
2023/11/06 06:01:42;;;;;;;3.70;0.60;;;;;;;11.22;89.71;99091.97;5036145;28;20527;-65
2023/11/06 06:04:09;;;;;;;1.80;0.40;;;;;;;11.23;89.37;99098.97;5036296;28;20493;-65
2023/11/06 06:06:37;;;;;;;2.03;0.53;;;;;;;11.22;89.12;99102.03;5035860;28;20486;-65
2023/11/06 06:09:04;;;;;;;1.80;0.50;;;;;;;11.28;88.54;99103.38;5035002;28;20482;-65
2023/11/06 06:11:36;;;;;;;1.93;0.43;;;;;;;11.30;88.92;99107.31;5035853;28;20509;-65
2023/11/06 06:14:02;;;;;;;2.40;0.60;;;;;;;11.30;88.50;99107.31;5036002;28;20469;-65
2023/11/06 06:16:29;;;;;;;1.90;0.50;;;;;;;11.31;88.58;99117.03;5035914;28;20474;-66
2023/11/06 06:18:56;;;;;;;3.17;0.47;;;;;;;11.31;88.69;99125.16;5035735;28;20607;-66
2023/11/06 06:21:22;;;;;;;2.10;0.60;;;;;;;11.34;88.83;99129.13;5035472;28;20453;-66
2023/11/06 06:23:50;;;;;;;1.77;0.40;;;;;;;11.34;89.07;99129.13;5035820;28;20836;-66
2023/11/06 06:26:17;;;;;;;2.10;0.50;;;;;;;11.40;88.51;99135.88;5035617;28;20566;-66
2023/11/06 06:28:44;;;;;;;1.90;0.50;;;;;;;11.41;88.05;99134.75;5036001;28;20443;-66
2023/11/06 06:31:10;;;;;;;2.00;0.60;;;;;;;11.38;89.21;99140.88;5035706;28;20443;-66
2023/11/06 06:33:37;;;;;;;2.00;0.50;;;;;;;11.36;89.71;99146.59;5035762;28;20509;-66
2023/11/06 06:36:05;;;;;;;2.03;0.53;;;;;;;11.34;89.19;99157.03;5035477;28;20622;-66
2023/11/06 06:38:31;;;;;;;1.80;0.40;;;;;;;11.35;89.57;99152.38;5036061;28;20461;-66
2023/11/06 06:40:59;;;;;;;1.80;0.40;;;;;;;11.34;88.93;99162.44;5035121;28;20474;-66
2023/11/06 06:46:01;;;;;;;1.80;0.40;;;;;;;11.45;89.07;99172.81;5014232;28;20479;-69
2023/11/06 06:48:28;;;;;;;2.33;0.83;;;;;;;11.45;88.94;99180.94;5015919;28;20472;-70
2023/11/06 06:50:55;;;;;;;2.30;0.40;;;;;;;11.45;89.64;99180.94;5015425;28;20535;-67
2023/11/06 06:53:22;;;;;;;2.63;0.50;;;;;;;11.44;89.94;99185.56;5015420;28;20463;-67
2023/11/06 06:55:48;;;;;;;2.83;0.73;;;;;;;11.52;88.82;99189.31;5015860;28;20444;-68
2023/11/06 06:58:16;;;;;;;1.90;0.40;;;;;;;11.54;88.72;99197.88;5015498;28;20494;-67
2023/11/06 07:00:43;;;;;;;1.80;0.30;;;;;;;11.55;88.95;99194.03;5015775;28;20527;-68
2023/11/06 07:03:10;;;;;;;1.70;0.30;;;;;;;11.52;89.26;99206.38;5015140;28;20599;-68
2023/11/06 07:05:37;;;;;;;1.80;0.40;;;;;;;11.55;88.75;99210.28;5014920;28;20471;-68
2023/11/06 07:08:05;;;;;;;2.00;0.50;;;;;;;11.58;88.69;99218.53;5015567;28;20487;-68
2023/11/06 07:10:31;;;;;;;1.80;0.40;;;;;;;11.58;88.96;99223.97;5015175;28;20442;-68
2023/11/06 07:12:58;;;;;;;1.80;0.40;;;;;;;11.60;88.98;99213.59;5015467;28;20524;-68
2023/11/06 07:15:28;;;;;;;2.03;0.40;;;;;;;11.62;88.59;99227.59;5015523;28;20446;-69
2023/11/06 07:17:55;;;;;;;1.83;0.37;;;;;;;11.62;90.05;99237.66;5015220;28;20444;-68
2023/11/06 07:20:21;;;;;;;5.20;0.60;;;;;;;11.64;90.22;99238.06;5015200;28;20451;-69
2023/11/06 07:22:48;;;;;;;1.80;0.40;;;;;;;11.65;90.09;99244.31;5014787;28;20815;-68
2023/11/06 07:25:16;;;;;;;1.80;0.40;;;;;;;11.68;88.65;99238.97;5015107;28;20439;-68
2023/11/06 07:27:43;;;;;;;2.63;0.50;;;;;;;11.71;89.37;99238.31;5015103;28;20479;-68
2023/11/06 07:30:11;;;;;;;1.80;0.40;;;;;;;11.78;88.50;99240.47;5015340;28;20443;-68
2023/11/06 07:32:39;;;;;;;1.80;0.40;;;;;;;11.84;87.55;99239.91;5014713;28;20510;-67
2023/11/06 07:35:06;;;;;;;1.80;0.40;;;;;;;11.83;88.11;99256.53;5014812;28;20460;-68
2023/11/06 07:37:34;;;;;;;2.07;0.50;;;;;;;11.81;88.69;99250.59;5014474;28;20810;-68
2023/11/06 07:40:01;;;;;;;2.00;0.47;;;;;;;11.80;89.25;99259.88;5014479;28;20436;-67
2023/11/06 07:42:27;;;;;;;2.20;0.70;;;;;;;11.77;87.87;99253.22;5014812;28;20444;-68
2023/11/06 07:44:54;;;;;;;1.80;0.40;;;;;;;11.77;87.99;99268.69;5014136;28;21014;-68
2023/11/06 07:47:21;;;;;;;1.80;0.40;;;;;;;11.71;88.24;99270.06;5014439;28;20577;-68
2023/11/06 07:49:49;;;;;;;2.07;0.47;;;;;;;11.69;88.64;99283.97;5014553;28;20483;-68
2023/11/06 07:52:17;;;;;;;1.87;0.40;;;;;;;11.68;89.06;99276.16;5014400;28;20444;-68
2023/11/06 07:54:44;;;;;;;2.10;0.50;;;;;;;11.60;91.15;99294.16;5014014;28;20467;-69
2023/11/06 07:57:11;;;;;;;1.90;0.40;;;;;;;11.60;90.70;99283.31;5014168;28;20527;-69
2023/11/06 07:59:40;;;;;;;1.80;0.40;;;;;;;11.67;90.31;99294.38;5014419;28;20460;-69
2023/11/06 08:02:10;;;;;;;1.80;0.40;;;;;;;11.76;90.26;99286.91;5014703;28;20886;-69
2023/11/06 08:04:37;;;;;;;2.17;0.63;;;;;;;11.84;89.31;99294.16;5014262;28;21059;-68
2023/11/06 08:07:05;;;;;;;1.77;0.37;;;;;;;11.93;88.55;99306.81;5014608;28;20582;-68
2023/11/06 08:09:31;;;;;;;1.80;0.40;;;;;;;11.93;87.91;99295.97;5014603;28;20534;-70
2023/11/06 08:11:58;;;;;;;1.90;0.50;;;;;;;11.97;88.24;99302.28;5014053;28;21004;-73
2023/11/06 08:14:25;;;;;;;1.80;0.40;;;;;;;12.03;88.73;99301.69;5014566;28;20460;-70
2023/11/06 08:16:52;;;;;;;1.80;0.40;;;;;;;12.05;87.91;99301.38;5014354;28;20541;-73
2023/11/06 08:19:18;;;;;;;2.77;0.57;;;;;;;12.07;88.15;99310.75;5014260;28;20995;-70
2023/11/06 08:21:45;;;;;;;1.80;0.40;;;;;;;12.10;87.47;99317.41;5014439;28;20531;-69
2023/11/06 08:24:13;;;;;;;2.10;0.50;;;;;;;12.12;87.67;99326.00;5013913;28;20484;-67
2023/11/06 08:26:39;;;;;;;1.80;0.40;;;;;;;12.16;87.46;99326.91;5013897;28;20847;-70
2023/11/06 08:29:06;;;;;;;3.20;0.83;;;;;;;12.18;88.77;99335.50;5014233;28;20443;-71
2023/11/06 08:31:33;;;;;;;1.80;0.40;;;;;;;12.37;87.04;99334.88;5014774;28;20479;-69
2023/11/06 08:33:59;;;;;;;1.90;0.50;;;;;;;12.47;86.72;99352.63;5013520;28;20811;-70
2023/11/06 08:36:26;;;;;;;2.00;0.60;;;;;;;12.45;86.90;99349.47;5013834;28;20502;-67
2023/11/06 08:38:53;;;;;;;2.10;0.60;;;;;;;12.49;86.71;99358.53;5014489;28;20439;-68
2023/11/06 08:41:21;;;;;;;1.70;0.30;;;;;;;12.48;86.74;99362.34;5013920;28;20866;-69
2023/11/06 08:43:47;;;;;;;1.80;0.40;;;;;;;12.53;86.20;99352.06;5014015;28;20897;-68
2023/11/06 08:46:14;;;;;;;1.80;0.40;;;;;;;12.59;85.70;99372.41;5013922;28;20511;-68
2023/11/06 08:48:42;;;;;;;1.80;0.40;;;;;;;12.59;85.87;99364.25;5013837;28;20929;-68
2023/11/06 08:51:09;;;;;;;1.80;0.40;;;;;;;12.65;86.67;99372.94;5013902;28;20530;-68
2023/11/06 08:53:36;;;;;;;1.90;0.40;;;;;;;12.71;86.16;99382.44;5013639;28;20470;-68
2023/11/06 08:56:04;;;;;;;1.90;0.40;;;;;;;12.70;86.14;99383.56;5013577;28;20813;-68
2023/11/06 08:58:31;;;;;;;1.73;0.30;;;;;;;12.72;85.77;99386.75;5013882;28;20527;-69
2023/11/06 09:01:00;;;;;;;1.80;0.40;;;;;;;12.67;86.83;99388.91;5014152;28;20866;-69
2023/11/06 09:03:27;;;;;;;2.00;0.40;;;;;;;12.57;88.00;99388.25;5013641;28;20522;-69
2023/11/06 09:05:53;;;;;;;1.80;0.40;;;;;;;12.64;86.98;99395.81;5013516;28;20440;-69
2023/11/06 09:08:20;;;;;;;2.00;0.50;;;;;;;12.61;86.14;99396.50;5013989;28;20574;-68
2023/11/06 09:10:47;;;;;;;2.27;0.43;;;;;;;12.56;86.84;99405.69;5014020;28;20448;-69
2023/11/06 09:13:13;;;;;;;2.00;0.60;;;;;;;12.50;87.70;99406.28;5013488;28;20546;-68
2023/11/06 09:15:41;;;;;;;2.00;0.50;;;;;;;12.66;87.26;99412.59;5014075;28;20439;-69
2023/11/06 09:18:08;;;;;;;1.90;0.40;;;;;;;12.76;85.96;99417.53;5013808;28;20963;-69
2023/11/06 09:20:35;;;;;;;2.10;0.50;;;;;;;12.91;87.15;99417.94;5013883;28;20456;-67
2023/11/06 09:23:01;;;;;;;4.30;0.80;;;;;;;13.10;85.38;99431.66;5013611;28;20979;-69
2023/11/06 09:25:28;;;;;;;2.00;0.40;;;;;;;13.16;85.28;99434.94;5013409;28;20523;-68
2023/11/06 09:27:54;;;;;;;1.80;0.40;;;;;;;13.19;85.14;99447.81;5013830;28;20558;-68
2023/11/06 09:30:21;;;;;;;1.90;0.50;;;;;;;13.26;84.11;99448.06;5013298;28;20436;-69
2023/11/06 09:32:49;;;;;;;1.83;0.40;;;;;;;13.25;83.55;99446.50;5013436;28;20447;-69
2023/11/06 09:35:16;;;;;;;2.17;0.80;;;;;;;13.25;83.71;99457.38;5013360;28;20443;-68
2023/11/06 09:37:43;;;;;;;2.23;0.77;;;;;;;13.27;84.83;99445.00;5013049;28;20992;-68
2023/11/06 09:40:20;;;;;;;2.00;0.63;;;;;;;13.32;85.15;99457.53;5013401;28;20448;-68
2023/11/06 09:42:48;;;;;;;2.00;0.50;;;;;;;13.37;83.15;99452.66;5013410;28;20896;-68
2023/11/06 09:45:16;;;;;;;1.87;0.50;;;;;;;13.40;83.08;99470.19;5015297;28;20483;-68
2023/11/06 09:47:50;;;;;;;1.90;0.60;;;;;;;13.38;83.19;99472.50;5016722;28;20583;-68
2023/11/06 09:50:19;;;;;;;2.20;0.67;;;;;;;13.44;82.95;99473.81;5016689;28;20469;-69
2023/11/06 09:52:47;;;;;;;3.30;0.60;;;;;;;13.49;82.68;99472.78;5016990;28;20810;-68
2023/11/06 09:55:18;;;;;;;3.93;0.80;;;;;;;13.58;82.36;99467.97;5016653;28;20496;-69
2023/11/06 09:57:45;;;;;;;3.10;0.93;;;;;;;13.75;81.81;99472.28;5017001;28;20971;-68
2023/11/06 10:00:16;;;;;;;2.20;0.60;;;;;;;13.90;80.96;99482.41;5017020;28;20480;-70
2023/11/06 10:02:43;;;;;;;2.97;0.70;;;;;;;14.10;79.13;99481.34;5017232;28;20520;-68
2023/11/06 10:05:15;;;;;;;1.93;0.60;;;;;;;14.18;79.16;99487.78;5016598;28;20547;-68
2023/11/06 10:07:42;;;;;;;3.13;0.80;;;;;;;14.32;78.34;99477.22;5016620;28;20471;-68
2023/11/06 10:10:14;;;;;;;2.47;0.60;;;;;;;14.45;76.63;99485.28;5016550;28;20498;-68
2023/11/06 10:12:41;;;;;;;2.10;0.53;;;;;;;14.48;75.57;99490.88;5016291;28;20436;-69
2023/11/06 10:15:11;;;;;;;2.10;0.50;;;;;;;14.47;76.11;99483.78;5016022;28;20464;-69
2023/11/06 10:17:38;;;;;;;11.17;0.83;;;;;;;14.50;74.60;99498.69;5017498;28;20428;-68
2023/11/06 10:20:13;;;;;;;1.90;0.50;;;;;;;14.47;73.04;99502.84;5016193;28;20436;-69
2023/11/06 10:22:53;;;;;;;2.10;0.70;;;;;;;14.30;73.49;99512.22;5016252;28;20459;-68
2023/11/06 10:25:25;;;;;;;3.00;0.93;;;;;;;14.13;74.09;99526.97;5016249;28;20476;-68
2023/11/06 10:27:51;;;;;;;2.40;0.60;;;;;;;14.05;74.46;99516.25;5016616;28;20503;-69
2023/11/06 10:30:18;;;;;;;3.80;0.73;;;;;;;13.87;75.17;99522.00;5015806;28;20531;-70
2023/11/06 10:32:44;;;;;;;1.90;0.50;;;;;;;13.87;75.84;99527.47;5015674;28;20444;-68
2023/11/06 10:35:13;;;;;;;2.23;0.57;;;;;;;13.88;75.20;99528.25;5016301;28;20563;-69
2023/11/06 10:37:41;;;;;;;2.70;0.73;;;;;;;13.80;76.38;99538.16;5015823;28;20528;-69
2023/11/06 10:40:12;;;;;;;2.83;0.60;;;;;;;13.81;75.75;99539.75;5016135;28;20986;-68
2023/11/06 10:42:41;;;;;;;3.00;0.93;;;;;;;13.77;76.45;99538.88;5016357;28;20444;-69
2023/11/06 10:45:13;;;;;;;2.73;0.70;;;;;;;13.80;74.89;99551.75;5015698;28;20480;-69
2023/11/06 10:47:44;;;;;;;2.00;0.63;;;;;;;13.76;76.49;99537.25;5016271;28;20555;-70
2023/11/06 10:50:15;;;;;;;2.00;0.50;;;;;;;13.98;75.09;99549.50;5016018;28;20417;-69
2023/11/06 10:52:45;;;;;;;1.90;0.50;;;;;;;14.17;74.53;99546.13;5016079;28;20443;-69
2023/11/06 10:55:16;;;;;;;1.90;0.50;;;;;;;14.26;73.37;99556.84;5015574;28;20499;-69
2023/11/06 10:57:44;;;;;;;2.40;1.03;;;;;;;14.29;73.58;99556.13;5015857;28;20497;-68
2023/11/06 11:00:18;;;;;;;2.23;0.60;;;;;;;14.46;72.62;99552.25;5015819;28;20448;-70
2023/11/06 11:02:47;;;;;;;4.83;0.50;;;;;;;14.55;74.97;99558.34;5016187;28;20464;-69
2023/11/06 11:05:15;;;;;;;2.20;0.60;;;;;;;14.63;73.45;99560.09;5016206;28;20468;-69
2023/11/06 11:07:43;;;;;;;2.10;0.60;;;;;;;14.54;71.49;99560.28;5015544;28;20530;-69
2023/11/06 11:10:11;;;;;;;2.37;0.80;;;;;;;14.39;70.72;99566.53;5015830;28;20440;-69
2023/11/06 11:12:40;;;;;;;2.00;0.53;;;;;;;14.38;73.06;99573.88;5015551;28;20498;-70
2023/11/06 11:15:08;;;;;;;2.00;0.50;;;;;;;14.38;71.86;99571.16;5015204;28;20464;-69
2023/11/06 11:17:35;;;;;;;1.90;0.50;;;;;;;14.31;70.75;99578.38;5014972;28;20966;-69
2023/11/06 11:20:06;;;;;;;1.90;0.43;;;;;;;14.36;73.30;99578.09;5015596;28;20440;-69
2023/11/06 11:22:33;;;;;;;1.90;0.50;;;;;;;14.55;70.27;99578.22;5015040;28;20445;-69
2023/11/06 11:25:01;;;;;;;2.20;0.77;;;;;;;14.44;71.65;99590.78;5014750;28;20556;-69
2023/11/06 11:27:28;;;;;;;5.20;0.80;;;;;;;14.34;73.27;99594.00;5015532;28;20871;-71
2023/11/06 11:30:13;;;;;;;2.20;0.50;;;;;;;14.29;72.95;99603.22;5015699;28;20440;-69
2023/11/06 11:32:47;;;;;;;2.37;0.60;;;;;;;14.58;71.38;99598.53;5015025;28;20425;-73
2023/11/06 11:35:47;;;;;;;2.50;0.70;;;;;;;14.68;72.88;99600.72;5015006;28;20539;-69
2023/11/06 11:38:21;;;;;;;2.43;0.70;;;;;;;14.64;72.35;99597.13;5006687;28;20547;-69